sensor_id;sensor_type;location;lat;lon;timestamp;P1;durP1;ratioP1;P2;durP2;ratioP2
76725;SDS011;65651;53.154;17.916;2023-04-24T00:00:04;14.40;;;10.60;;
76725;SDS011;65651;53.154;17.916;2023-04-24T00:02:59;12.70;;;9.60;;
76725;SDS011;65651;53.154;17.916;2023-04-24T00:05:26;14.40;;;10.60;;
76725;SDS011;65651;53.154;17.916;2023-04-24T00:07:54;13.70;;;9.90;;
76725;SDS011;65651;53.154;17.916;2023-04-24T00:10:22;13.10;;;10.50;;
76725;SDS011;65651;53.154;17.916;2023-04-24T00:12:49;15.40;;;10.90;;
76725;SDS011;65651;53.154;17.916;2023-04-24T00:15:17;14.60;;;10.10;;
76725;SDS011;65651;53.154;17.916;2023-04-24T00:17:44;16.10;;;11.40;;
76725;SDS011;65651;53.154;17.916;2023-04-24T00:20:11;14.70;;;11.30;;
76725;SDS011;65651;53.154;17.916;2023-04-24T00:22:39;15.00;;;11.10;;
76725;SDS011;65651;53.154;17.916;2023-04-24T00:25:06;13.40;;;10.00;;
76725;SDS011;65651;53.154;17.916;2023-04-24T00:27:37;15.80;;;11.60;;
76725;SDS011;65651;53.154;17.916;2023-04-24T00:30:05;15.00;;;11.10;;
76725;SDS011;65651;53.154;17.916;2023-04-24T00:32:33;15.50;;;10.40;;
76725;SDS011;65651;53.154;17.916;2023-04-24T00:35:00;12.80;;;10.00;;
76725;SDS011;65651;53.154;17.916;2023-04-24T00:37:28;14.10;;;10.00;;
76725;SDS011;65651;53.154;17.916;2023-04-24T00:39:58;12.40;;;10.10;;
76725;SDS011;65651;53.154;17.916;2023-04-24T00:42:25;15.50;;;11.00;;
76725;SDS011;65651;53.154;17.916;2023-04-24T00:44:53;15.70;;;11.00;;
76725;SDS011;65651;53.154;17.916;2023-04-24T00:47:21;13.90;;;10.70;;
76725;SDS011;65651;53.154;17.916;2023-04-24T00:49:51;16.00;;;11.00;;
76725;SDS011;65651;53.154;17.916;2023-04-24T00:52:19;15.10;;;11.40;;
76725;SDS011;65651;53.154;17.916;2023-04-24T00:54:47;13.30;;;10.80;;
76725;SDS011;65651;53.154;17.916;2023-04-24T00:57:14;17.50;;;11.60;;
76725;SDS011;65651;53.154;17.916;2023-04-24T00:59:42;16.10;;;11.90;;
76725;SDS011;65651;53.154;17.916;2023-04-24T01:02:11;15.00;;;11.30;;
76725;SDS011;65651;53.154;17.916;2023-04-24T01:04:39;17.00;;;12.40;;
76725;SDS011;65651;53.154;17.916;2023-04-24T01:07:07;16.40;;;11.90;;
76725;SDS011;65651;53.154;17.916;2023-04-24T01:09:40;16.60;;;11.90;;
76725;SDS011;65651;53.154;17.916;2023-04-24T01:12:10;14.50;;;11.50;;
76725;SDS011;65651;53.154;17.916;2023-04-24T01:14:38;16.10;;;11.80;;
76725;SDS011;65651;53.154;17.916;2023-04-24T01:17:05;16.10;;;12.00;;
76725;SDS011;65651;53.154;17.916;2023-04-24T01:19:32;15.10;;;12.10;;
76725;SDS011;65651;53.154;17.916;2023-04-24T01:21:59;17.80;;;11.30;;
76725;SDS011;65651;53.154;17.916;2023-04-24T01:24:29;14.60;;;11.60;;
76725;SDS011;65651;53.154;17.916;2023-04-24T01:26:57;18.90;;;12.60;;
76725;SDS011;65651;53.154;17.916;2023-04-24T01:29:24;17.10;;;13.10;;
76725;SDS011;65651;53.154;17.916;2023-04-24T01:31:51;19.50;;;11.60;;
76725;SDS011;65651;53.154;17.916;2023-04-24T01:34:19;13.90;;;9.90;;
76725;SDS011;65651;53.154;17.916;2023-04-24T01:36:46;15.90;;;11.60;;
76725;SDS011;65651;53.154;17.916;2023-04-24T01:39:15;17.20;;;12.00;;
76725;SDS011;65651;53.154;17.916;2023-04-24T01:41:43;16.60;;;11.80;;
76725;SDS011;65651;53.154;17.916;2023-04-24T01:44:12;15.00;;;12.00;;
76725;SDS011;65651;53.154;17.916;2023-04-24T01:46:39;15.50;;;11.00;;
76725;SDS011;65651;53.154;17.916;2023-04-24T01:49:09;15.30;;;10.60;;
76725;SDS011;65651;53.154;17.916;2023-04-24T01:51:39;15.90;;;12.00;;
76725;SDS011;65651;53.154;17.916;2023-04-24T01:54:09;13.40;;;9.90;;
76725;SDS011;65651;53.154;17.916;2023-04-24T01:56:36;13.70;;;11.20;;
76725;SDS011;65651;53.154;17.916;2023-04-24T01:59:11;20.00;;;11.50;;
76725;SDS011;65651;53.154;17.916;2023-04-24T02:01:39;16.10;;;11.70;;
76725;SDS011;65651;53.154;17.916;2023-04-24T02:04:07;15.60;;;11.40;;
76725;SDS011;65651;53.154;17.916;2023-04-24T02:06:35;18.00;;;12.50;;
76725;SDS011;65651;53.154;17.916;2023-04-24T02:09:03;16.00;;;11.00;;
76725;SDS011;65651;53.154;17.916;2023-04-24T02:11:30;15.20;;;11.30;;
76725;SDS011;65651;53.154;17.916;2023-04-24T02:13:58;18.00;;;12.40;;
76725;SDS011;65651;53.154;17.916;2023-04-24T02:16:28;19.40;;;12.80;;
76725;SDS011;65651;53.154;17.916;2023-04-24T02:19:03;17.40;;;12.20;;
76725;SDS011;65651;53.154;17.916;2023-04-24T02:21:31;14.70;;;11.10;;
76725;SDS011;65651;53.154;17.916;2023-04-24T02:23:59;15.60;;;11.40;;
76725;SDS011;65651;53.154;17.916;2023-04-24T02:26:27;22.40;;;12.20;;
76725;SDS011;65651;53.154;17.916;2023-04-24T02:28:54;17.70;;;11.10;;
76725;SDS011;65651;53.154;17.916;2023-04-24T02:31:22;16.30;;;11.70;;
76725;SDS011;65651;53.154;17.916;2023-04-24T02:33:50;15.20;;;12.20;;
76725;SDS011;65651;53.154;17.916;2023-04-24T02:36:17;18.70;;;13.40;;
76725;SDS011;65651;53.154;17.916;2023-04-24T02:38:45;16.80;;;12.30;;
76725;SDS011;65651;53.154;17.916;2023-04-24T02:41:13;17.20;;;13.50;;
76725;SDS011;65651;53.154;17.916;2023-04-24T02:43:40;20.00;;;12.20;;
76725;SDS011;65651;53.154;17.916;2023-04-24T02:46:07;21.90;;;13.00;;
76725;SDS011;65651;53.154;17.916;2023-04-24T02:48:37;18.60;;;12.40;;
76725;SDS011;65651;53.154;17.916;2023-04-24T02:51:06;14.00;;;10.70;;
76725;SDS011;65651;53.154;17.916;2023-04-24T02:53:33;20.90;;;13.70;;
76725;SDS011;65651;53.154;17.916;2023-04-24T02:56:01;23.40;;;13.50;;
76725;SDS011;65651;53.154;17.916;2023-04-24T02:58:28;19.40;;;12.70;;
76725;SDS011;65651;53.154;17.916;2023-04-24T03:00:56;18.40;;;13.30;;
76725;SDS011;65651;53.154;17.916;2023-04-24T03:03:23;17.40;;;12.50;;
76725;SDS011;65651;53.154;17.916;2023-04-24T03:05:50;15.60;;;12.30;;
76725;SDS011;65651;53.154;17.916;2023-04-24T03:08:18;17.40;;;12.00;;
76725;SDS011;65651;53.154;17.916;2023-04-24T03:10:45;15.50;;;10.80;;
76725;SDS011;65651;53.154;17.916;2023-04-24T03:13:12;17.00;;;12.00;;
76725;SDS011;65651;53.154;17.916;2023-04-24T03:15:39;17.50;;;12.70;;
76725;SDS011;65651;53.154;17.916;2023-04-24T03:18:07;16.40;;;12.90;;
76725;SDS011;65651;53.154;17.916;2023-04-24T03:20:34;22.70;;;12.90;;
76725;SDS011;65651;53.154;17.916;2023-04-24T03:23:04;14.70;;;11.70;;
76725;SDS011;65651;53.154;17.916;2023-04-24T03:25:31;16.40;;;12.00;;
76725;SDS011;65651;53.154;17.916;2023-04-24T03:27:59;16.50;;;12.70;;
76725;SDS011;65651;53.154;17.916;2023-04-24T03:30:40;18.20;;;12.70;;
76725;SDS011;65651;53.154;17.916;2023-04-24T03:33:08;17.00;;;12.70;;
76725;SDS011;65651;53.154;17.916;2023-04-24T03:35:39;19.10;;;13.60;;
76725;SDS011;65651;53.154;17.916;2023-04-24T03:38:09;14.50;;;11.70;;
76725;SDS011;65651;53.154;17.916;2023-04-24T03:40:43;20.90;;;14.90;;
76725;SDS011;65651;53.154;17.916;2023-04-24T03:43:31;19.50;;;13.20;;
76725;SDS011;65651;53.154;17.916;2023-04-24T03:46:01;22.90;;;14.30;;
76725;SDS011;65651;53.154;17.916;2023-04-24T03:48:30;23.40;;;14.40;;
76725;SDS011;65651;53.154;17.916;2023-04-24T03:51:01;22.30;;;15.20;;
76725;SDS011;65651;53.154;17.916;2023-04-24T03:53:30;21.10;;;15.00;;
76725;SDS011;65651;53.154;17.916;2023-04-24T03:55:57;22.50;;;15.00;;
76725;SDS011;65651;53.154;17.916;2023-04-24T03:58:26;20.50;;;14.80;;
76725;SDS011;65651;53.154;17.916;2023-04-24T04:00:54;24.50;;;15.00;;
76725;SDS011;65651;53.154;17.916;2023-04-24T04:03:36;23.90;;;16.10;;
76725;SDS011;65651;53.154;17.916;2023-04-24T04:06:03;21.20;;;15.30;;
76725;SDS011;65651;53.154;17.916;2023-04-24T04:08:30;19.20;;;14.10;;
76725;SDS011;65651;53.154;17.916;2023-04-24T04:10:58;21.80;;;14.10;;
76725;SDS011;65651;53.154;17.916;2023-04-24T04:13:25;22.70;;;15.90;;
76725;SDS011;65651;53.154;17.916;2023-04-24T04:15:53;27.50;;;16.50;;
76725;SDS011;65651;53.154;17.916;2023-04-24T04:18:20;23.40;;;16.00;;
76725;SDS011;65651;53.154;17.916;2023-04-24T04:20:47;22.10;;;15.70;;
76725;SDS011;65651;53.154;17.916;2023-04-24T04:23:15;24.10;;;16.50;;
76725;SDS011;65651;53.154;17.916;2023-04-24T04:26:08;24.10;;;16.60;;
76725;SDS011;65651;53.154;17.916;2023-04-24T04:29:14;24.50;;;15.90;;
76725;SDS011;65651;53.154;17.916;2023-04-24T04:31:44;24.70;;;17.90;;
76725;SDS011;65651;53.154;17.916;2023-04-24T04:34:15;25.10;;;16.30;;
76725;SDS011;65651;53.154;17.916;2023-04-24T04:36:42;19.30;;;14.10;;
76725;SDS011;65651;53.154;17.916;2023-04-24T04:39:29;18.40;;;13.50;;
76725;SDS011;65651;53.154;17.916;2023-04-24T04:42:06;21.80;;;15.30;;
76725;SDS011;65651;53.154;17.916;2023-04-24T04:44:39;23.30;;;16.50;;
76725;SDS011;65651;53.154;17.916;2023-04-24T04:47:07;24.40;;;17.60;;
76725;SDS011;65651;53.154;17.916;2023-04-24T04:49:37;27.30;;;17.80;;
76725;SDS011;65651;53.154;17.916;2023-04-24T04:52:08;23.60;;;16.70;;
76725;SDS011;65651;53.154;17.916;2023-04-24T04:54:37;19.60;;;13.20;;
76725;SDS011;65651;53.154;17.916;2023-04-24T04:57:04;19.40;;;14.00;;
76725;SDS011;65651;53.154;17.916;2023-04-24T04:59:33;20.90;;;14.20;;
76725;SDS011;65651;53.154;17.916;2023-04-24T05:02:05;19.50;;;13.30;;
76725;SDS011;65651;53.154;17.916;2023-04-24T05:04:32;20.10;;;14.30;;
76725;SDS011;65651;53.154;17.916;2023-04-24T05:06:59;20.00;;;14.20;;
76725;SDS011;65651;53.154;17.916;2023-04-24T05:09:28;17.20;;;12.80;;
76725;SDS011;65651;53.154;17.916;2023-04-24T05:12:03;17.80;;;13.20;;
76725;SDS011;65651;53.154;17.916;2023-04-24T05:14:34;14.80;;;12.60;;
76725;SDS011;65651;53.154;17.916;2023-04-24T05:17:01;18.50;;;14.50;;
76725;SDS011;65651;53.154;17.916;2023-04-24T05:19:30;21.60;;;14.50;;
76725;SDS011;65651;53.154;17.916;2023-04-24T05:22:01;25.30;;;14.60;;
76725;SDS011;65651;53.154;17.916;2023-04-24T05:24:30;17.80;;;13.30;;
76725;SDS011;65651;53.154;17.916;2023-04-24T05:27:07;19.30;;;13.40;;
76725;SDS011;65651;53.154;17.916;2023-04-24T05:29:38;17.50;;;13.90;;
76725;SDS011;65651;53.154;17.916;2023-04-24T05:32:07;16.70;;;12.90;;
76725;SDS011;65651;53.154;17.916;2023-04-24T05:34:35;15.70;;;11.10;;
76725;SDS011;65651;53.154;17.916;2023-04-24T05:37:03;18.10;;;12.00;;
76725;SDS011;65651;53.154;17.916;2023-04-24T05:39:35;12.70;;;9.30;;
76725;SDS011;65651;53.154;17.916;2023-04-24T05:42:03;10.70;;;9.00;;
76725;SDS011;65651;53.154;17.916;2023-04-24T05:44:31;13.40;;;7.70;;
76725;SDS011;65651;53.154;17.916;2023-04-24T05:46:59;14.30;;;9.70;;
76725;SDS011;65651;53.154;17.916;2023-04-24T05:49:27;12.80;;;9.70;;
76725;SDS011;65651;53.154;17.916;2023-04-24T05:51:55;15.10;;;11.20;;
76725;SDS011;65651;53.154;17.916;2023-04-24T05:54:23;17.80;;;11.50;;
76725;SDS011;65651;53.154;17.916;2023-04-24T05:56:50;14.90;;;10.50;;
76725;SDS011;65651;53.154;17.916;2023-04-24T05:59:25;14.00;;;11.40;;
76725;SDS011;65651;53.154;17.916;2023-04-24T06:01:53;18.60;;;11.40;;
76725;SDS011;65651;53.154;17.916;2023-04-24T06:04:21;16.90;;;11.00;;
76725;SDS011;65651;53.154;17.916;2023-04-24T06:06:49;14.30;;;10.50;;
76725;SDS011;65651;53.154;17.916;2023-04-24T06:09:18;15.20;;;11.20;;
76725;SDS011;65651;53.154;17.916;2023-04-24T06:11:45;17.60;;;11.70;;
76725;SDS011;65651;53.154;17.916;2023-04-24T06:14:13;16.50;;;11.60;;
76725;SDS011;65651;53.154;17.916;2023-04-24T06:16:41;19.20;;;12.30;;
76725;SDS011;65651;53.154;17.916;2023-04-24T06:19:17;17.80;;;12.30;;
76725;SDS011;65651;53.154;17.916;2023-04-24T06:21:44;15.40;;;12.00;;
76725;SDS011;65651;53.154;17.916;2023-04-24T06:24:13;17.80;;;11.80;;
76725;SDS011;65651;53.154;17.916;2023-04-24T06:26:42;16.20;;;11.90;;
76725;SDS011;65651;53.154;17.916;2023-04-24T06:29:10;15.00;;;10.50;;
76725;SDS011;65651;53.154;17.916;2023-04-24T06:31:37;13.50;;;9.70;;
76725;SDS011;65651;53.154;17.916;2023-04-24T06:34:04;12.40;;;9.10;;
76725;SDS011;65651;53.154;17.916;2023-04-24T06:36:32;12.50;;;9.60;;
76725;SDS011;65651;53.154;17.916;2023-04-24T06:39:01;11.50;;;9.50;;
76725;SDS011;65651;53.154;17.916;2023-04-24T06:41:29;13.00;;;9.20;;
76725;SDS011;65651;53.154;17.916;2023-04-24T06:43:56;14.20;;;9.80;;
76725;SDS011;65651;53.154;17.916;2023-04-24T06:46:23;14.50;;;10.80;;
76725;SDS011;65651;53.154;17.916;2023-04-24T06:48:55;12.20;;;10.30;;
76725;SDS011;65651;53.154;17.916;2023-04-24T06:51:23;14.20;;;10.50;;
76725;SDS011;65651;53.154;17.916;2023-04-24T06:53:52;14.60;;;11.00;;
76725;SDS011;65651;53.154;17.916;2023-04-24T06:56:21;14.60;;;10.30;;
76725;SDS011;65651;53.154;17.916;2023-04-24T06:58:49;15.00;;;10.20;;
76725;SDS011;65651;53.154;17.916;2023-04-24T07:01:17;13.80;;;10.00;;
76725;SDS011;65651;53.154;17.916;2023-04-24T07:03:44;14.80;;;9.90;;
76725;SDS011;65651;53.154;17.916;2023-04-24T07:06:11;16.20;;;9.90;;
76725;SDS011;65651;53.154;17.916;2023-04-24T07:08:39;13.60;;;9.70;;
76725;SDS011;65651;53.154;17.916;2023-04-24T07:11:11;12.70;;;9.50;;
76725;SDS011;65651;53.154;17.916;2023-04-24T07:13:38;14.50;;;9.20;;
76725;SDS011;65651;53.154;17.916;2023-04-24T07:16:08;12.70;;;8.30;;
76725;SDS011;65651;53.154;17.916;2023-04-24T07:18:36;12.10;;;9.00;;
76725;SDS011;65651;53.154;17.916;2023-04-24T07:21:04;11.10;;;8.20;;
76725;SDS011;65651;53.154;17.916;2023-04-24T07:23:31;16.20;;;8.10;;
76725;SDS011;65651;53.154;17.916;2023-04-24T07:25:58;14.30;;;8.50;;
76725;SDS011;65651;53.154;17.916;2023-04-24T07:28:26;12.10;;;8.20;;
76725;SDS011;65651;53.154;17.916;2023-04-24T07:30:53;13.70;;;7.20;;
76725;SDS011;65651;53.154;17.916;2023-04-24T07:33:21;15.30;;;7.50;;
76725;SDS011;65651;53.154;17.916;2023-04-24T07:35:48;14.00;;;8.20;;
76725;SDS011;65651;53.154;17.916;2023-04-24T07:38:16;11.20;;;5.50;;
76725;SDS011;65651;53.154;17.916;2023-04-24T07:40:47;11.10;;;7.30;;
76725;SDS011;65651;53.154;17.916;2023-04-24T07:43:15;13.90;;;7.70;;
76725;SDS011;65651;53.154;17.916;2023-04-24T07:45:42;13.30;;;7.70;;
76725;SDS011;65651;53.154;17.916;2023-04-24T07:48:10;15.00;;;7.20;;
76725;SDS011;65651;53.154;17.916;2023-04-24T07:50:38;13.00;;;7.00;;
76725;SDS011;65651;53.154;17.916;2023-04-24T07:53:05;10.70;;;6.50;;
76725;SDS011;65651;53.154;17.916;2023-04-24T07:55:32;10.70;;;6.30;;
76725;SDS011;65651;53.154;17.916;2023-04-24T07:58:00;9.50;;;6.70;;
76725;SDS011;65651;53.154;17.916;2023-04-24T08:00:27;11.10;;;6.40;;
76725;SDS011;65651;53.154;17.916;2023-04-24T08:02:58;8.30;;;5.40;;
76725;SDS011;65651;53.154;17.916;2023-04-24T08:05:25;8.00;;;5.00;;
76725;SDS011;65651;53.154;17.916;2023-04-24T08:07:54;11.10;;;7.10;;
76725;SDS011;65651;53.154;17.916;2023-04-24T08:10:24;7.20;;;4.80;;
76725;SDS011;65651;53.154;17.916;2023-04-24T08:12:52;8.40;;;5.50;;
76725;SDS011;65651;53.154;17.916;2023-04-24T08:15:19;9.50;;;6.20;;
76725;SDS011;65651;53.154;17.916;2023-04-24T08:17:47;8.60;;;4.60;;
76725;SDS011;65651;53.154;17.916;2023-04-24T08:20:14;9.70;;;6.50;;
76725;SDS011;65651;53.154;17.916;2023-04-24T08:22:42;21.10;;;13.50;;
76725;SDS011;65651;53.154;17.916;2023-04-24T08:25:10;23.10;;;16.80;;
76725;SDS011;65651;53.154;17.916;2023-04-24T08:27:38;13.60;;;9.50;;
76725;SDS011;65651;53.154;17.916;2023-04-24T08:30:06;6.10;;;5.10;;
76725;SDS011;65651;53.154;17.916;2023-04-24T08:32:36;7.90;;;4.70;;
76725;SDS011;65651;53.154;17.916;2023-04-24T08:35:04;6.30;;;4.50;;
76725;SDS011;65651;53.154;17.916;2023-04-24T08:37:32;6.80;;;4.20;;
76725;SDS011;65651;53.154;17.916;2023-04-24T08:39:59;7.00;;;4.10;;
76725;SDS011;65651;53.154;17.916;2023-04-24T08:42:28;6.10;;;3.90;;
76725;SDS011;65651;53.154;17.916;2023-04-24T08:44:59;9.80;;;6.30;;
76725;SDS011;65651;53.154;17.916;2023-04-24T08:47:26;7.00;;;5.10;;
76725;SDS011;65651;53.154;17.916;2023-04-24T08:49:56;7.20;;;5.30;;
76725;SDS011;65651;53.154;17.916;2023-04-24T08:52:26;4.80;;;4.00;;
76725;SDS011;65651;53.154;17.916;2023-04-24T08:54:55;6.60;;;4.20;;
76725;SDS011;65651;53.154;17.916;2023-04-24T08:57:23;8.00;;;3.90;;
76725;SDS011;65651;53.154;17.916;2023-04-24T08:59:53;7.30;;;5.00;;
76725;SDS011;65651;53.154;17.916;2023-04-24T09:02:21;6.90;;;4.50;;
76725;SDS011;65651;53.154;17.916;2023-04-24T09:04:49;5.00;;;3.90;;
76725;SDS011;65651;53.154;17.916;2023-04-24T09:07:18;8.70;;;6.10;;
76725;SDS011;65651;53.154;17.916;2023-04-24T09:09:47;10.10;;;4.80;;
76725;SDS011;65651;53.154;17.916;2023-04-24T09:12:17;5.10;;;4.00;;
76725;SDS011;65651;53.154;17.916;2023-04-24T09:14:45;8.70;;;4.90;;
76725;SDS011;65651;53.154;17.916;2023-04-24T09:17:12;6.40;;;4.30;;
76725;SDS011;65651;53.154;17.916;2023-04-24T09:19:40;9.00;;;4.90;;
76725;SDS011;65651;53.154;17.916;2023-04-24T09:22:08;7.70;;;4.40;;
76725;SDS011;65651;53.154;17.916;2023-04-24T09:24:37;8.00;;;5.00;;
76725;SDS011;65651;53.154;17.916;2023-04-24T09:27:05;8.80;;;5.30;;
76725;SDS011;65651;53.154;17.916;2023-04-24T09:29:34;9.10;;;4.80;;
76725;SDS011;65651;53.154;17.916;2023-04-24T09:32:18;8.10;;;4.20;;
76725;SDS011;65651;53.154;17.916;2023-04-24T09:34:48;11.50;;;4.50;;
76725;SDS011;65651;53.154;17.916;2023-04-24T09:40:14;8.00;;;4.90;;
76725;SDS011;65651;53.154;17.916;2023-04-24T09:42:51;6.20;;;4.30;;
76725;SDS011;65651;53.154;17.916;2023-04-24T09:45:20;6.50;;;4.30;;
76725;SDS011;65651;53.154;17.916;2023-04-24T09:47:51;5.20;;;3.50;;
76725;SDS011;65651;53.154;17.916;2023-04-24T09:50:22;8.40;;;5.10;;
76725;SDS011;65651;53.154;17.916;2023-04-24T09:52:59;5.90;;;5.60;;
76725;SDS011;65651;53.154;17.916;2023-04-24T09:55:30;8.30;;;4.30;;
76725;SDS011;65651;53.154;17.916;2023-04-24T09:57:58;5.80;;;3.60;;
76725;SDS011;65651;53.154;17.916;2023-04-24T10:00:28;8.80;;;4.20;;
76725;SDS011;65651;53.154;17.916;2023-04-24T10:02:57;5.50;;;4.20;;
76725;SDS011;65651;53.154;17.916;2023-04-24T10:05:27;6.40;;;3.90;;
76725;SDS011;65651;53.154;17.916;2023-04-24T10:08:00;5.70;;;3.50;;
76725;SDS011;65651;53.154;17.916;2023-04-24T10:10:44;6.60;;;4.40;;
76725;SDS011;65651;53.154;17.916;2023-04-24T10:13:13;5.10;;;3.40;;
76725;SDS011;65651;53.154;17.916;2023-04-24T10:15:44;6.90;;;3.80;;
76725;SDS011;65651;53.154;17.916;2023-04-24T10:18:15;8.20;;;4.40;;
76725;SDS011;65651;53.154;17.916;2023-04-24T10:20:43;9.50;;;6.10;;
76725;SDS011;65651;53.154;17.916;2023-04-24T10:23:10;6.20;;;4.40;;
76725;SDS011;65651;53.154;17.916;2023-04-24T10:25:41;9.50;;;6.10;;
76725;SDS011;65651;53.154;17.916;2023-04-24T10:28:09;11.90;;;6.50;;
76725;SDS011;65651;53.154;17.916;2023-04-24T10:30:37;11.80;;;6.40;;
76725;SDS011;65651;53.154;17.916;2023-04-24T10:33:09;6.40;;;4.00;;
76725;SDS011;65651;53.154;17.916;2023-04-24T10:35:40;6.50;;;3.90;;
76725;SDS011;65651;53.154;17.916;2023-04-24T10:38:12;8.00;;;4.30;;
76725;SDS011;65651;53.154;17.916;2023-04-24T10:40:41;7.10;;;5.00;;
76725;SDS011;65651;53.154;17.916;2023-04-24T10:43:10;8.30;;;5.90;;
76725;SDS011;65651;53.154;17.916;2023-04-24T10:45:43;5.30;;;4.60;;
76725;SDS011;65651;53.154;17.916;2023-04-24T10:48:28;6.50;;;4.60;;
76725;SDS011;65651;53.154;17.916;2023-04-24T10:50:56;9.60;;;4.90;;
76725;SDS011;65651;53.154;17.916;2023-04-24T10:53:25;9.50;;;6.20;;
76725;SDS011;65651;53.154;17.916;2023-04-24T10:58:43;15.30;;;7.00;;
76725;SDS011;65651;53.154;17.916;2023-04-24T11:01:29;11.20;;;5.80;;
76725;SDS011;65651;53.154;17.916;2023-04-24T11:04:00;8.30;;;5.20;;
76725;SDS011;65651;53.154;17.916;2023-04-24T11:06:32;8.20;;;4.20;;
76725;SDS011;65651;53.154;17.916;2023-04-24T11:09:08;19.90;;;9.30;;
76725;SDS011;65651;53.154;17.916;2023-04-24T11:11:43;10.50;;;6.80;;
76725;SDS011;65651;53.154;17.916;2023-04-24T11:14:15;10.00;;;4.80;;
76725;SDS011;65651;53.154;17.916;2023-04-24T11:17:01;5.80;;;4.70;;
76725;SDS011;65651;53.154;17.916;2023-04-24T11:19:28;8.60;;;5.50;;
76725;SDS011;65651;53.154;17.916;2023-04-24T11:21:59;11.20;;;5.50;;
76725;SDS011;65651;53.154;17.916;2023-04-24T11:32:22;8.10;;;5.80;;
76725;SDS011;65651;53.154;17.916;2023-04-24T11:34:58;6.30;;;5.10;;
76725;SDS011;65651;53.154;17.916;2023-04-24T11:37:33;11.50;;;6.10;;
76725;SDS011;65651;53.154;17.916;2023-04-24T11:40:00;11.80;;;5.80;;
76725;SDS011;65651;53.154;17.916;2023-04-24T11:42:33;6.40;;;5.30;;
76725;SDS011;65651;53.154;17.916;2023-04-24T11:45:02;13.90;;;6.70;;
76725;SDS011;65651;53.154;17.916;2023-04-24T11:47:35;22.70;;;9.20;;
76725;SDS011;65651;53.154;17.916;2023-04-24T11:50:04;15.30;;;8.00;;
76725;SDS011;65651;53.154;17.916;2023-04-24T11:52:33;15.60;;;6.90;;
76725;SDS011;65651;53.154;17.916;2023-04-24T11:55:06;11.50;;;5.90;;
76725;SDS011;65651;53.154;17.916;2023-04-24T11:57:35;11.20;;;6.60;;
76725;SDS011;65651;53.154;17.916;2023-04-24T12:00:04;22.00;;;8.60;;
76725;SDS011;65651;53.154;17.916;2023-04-24T12:02:39;19.00;;;9.40;;
76725;SDS011;65651;53.154;17.916;2023-04-24T12:05:06;7.60;;;5.90;;
76725;SDS011;65651;53.154;17.916;2023-04-24T12:07:41;9.50;;;6.90;;
76725;SDS011;65651;53.154;17.916;2023-04-24T12:10:13;11.90;;;6.30;;
76725;SDS011;65651;53.154;17.916;2023-04-24T12:12:41;9.90;;;6.80;;
76725;SDS011;65651;53.154;17.916;2023-04-24T12:15:13;11.10;;;7.10;;
76725;SDS011;65651;53.154;17.916;2023-04-24T12:17:43;7.60;;;6.00;;
76725;SDS011;65651;53.154;17.916;2023-04-24T12:20:11;8.30;;;5.80;;
76725;SDS011;65651;53.154;17.916;2023-04-24T12:25:25;10.20;;;6.90;;
76725;SDS011;65651;53.154;17.916;2023-04-24T12:30:30;11.10;;;7.50;;
76725;SDS011;65651;53.154;17.916;2023-04-24T12:33:02;10.40;;;6.90;;
76725;SDS011;65651;53.154;17.916;2023-04-24T12:35:31;8.40;;;5.40;;
76725;SDS011;65651;53.154;17.916;2023-04-24T12:38:09;7.70;;;6.60;;
76725;SDS011;65651;53.154;17.916;2023-04-24T12:40:40;12.00;;;7.30;;
76725;SDS011;65651;53.154;17.916;2023-04-24T12:43:20;8.90;;;6.30;;
76725;SDS011;65651;53.154;17.916;2023-04-24T12:45:50;9.30;;;6.00;;
76725;SDS011;65651;53.154;17.916;2023-04-24T12:48:17;8.10;;;6.40;;
76725;SDS011;65651;53.154;17.916;2023-04-24T12:50:44;7.40;;;6.20;;
76725;SDS011;65651;53.154;17.916;2023-04-24T12:53:11;9.70;;;6.80;;
76725;SDS011;65651;53.154;17.916;2023-04-24T12:55:39;9.90;;;6.50;;
76725;SDS011;65651;53.154;17.916;2023-04-24T12:58:10;8.80;;;5.70;;
76725;SDS011;65651;53.154;17.916;2023-04-24T13:00:38;8.90;;;6.70;;
76725;SDS011;65651;53.154;17.916;2023-04-24T13:03:05;7.20;;;5.70;;
76725;SDS011;65651;53.154;17.916;2023-04-24T13:05:33;9.80;;;6.30;;
76725;SDS011;65651;53.154;17.916;2023-04-24T13:08:00;8.60;;;6.80;;
76725;SDS011;65651;53.154;17.916;2023-04-24T13:10:27;9.50;;;7.30;;
76725;SDS011;65651;53.154;17.916;2023-04-24T13:12:54;7.60;;;6.00;;
76725;SDS011;65651;53.154;17.916;2023-04-24T13:15:22;8.00;;;5.80;;
76725;SDS011;65651;53.154;17.916;2023-04-24T13:17:52;7.20;;;6.20;;
76725;SDS011;65651;53.154;17.916;2023-04-24T13:20:19;12.10;;;8.40;;
76725;SDS011;65651;53.154;17.916;2023-04-24T13:22:46;8.30;;;5.60;;
76725;SDS011;65651;53.154;17.916;2023-04-24T13:25:14;12.20;;;6.40;;
76725;SDS011;65651;53.154;17.916;2023-04-24T13:27:43;7.10;;;5.10;;
76725;SDS011;65651;53.154;17.916;2023-04-24T13:30:11;5.40;;;4.70;;
76725;SDS011;65651;53.154;17.916;2023-04-24T13:32:39;4.80;;;4.20;;
76725;SDS011;65651;53.154;17.916;2023-04-24T13:35:06;6.10;;;4.70;;
76725;SDS011;65651;53.154;17.916;2023-04-24T13:37:34;6.60;;;4.90;;
76725;SDS011;65651;53.154;17.916;2023-04-24T13:40:02;8.90;;;4.50;;
76725;SDS011;65651;53.154;17.916;2023-04-24T13:42:32;4.60;;;3.70;;
76725;SDS011;65651;53.154;17.916;2023-04-24T13:45:00;4.70;;;3.20;;
76725;SDS011;65651;53.154;17.916;2023-04-24T13:47:27;4.70;;;4.00;;
76725;SDS011;65651;53.154;17.916;2023-04-24T13:49:54;5.00;;;4.40;;
76725;SDS011;65651;53.154;17.916;2023-04-24T13:52:22;4.90;;;4.40;;
76725;SDS011;65651;53.154;17.916;2023-04-24T13:54:49;6.20;;;4.70;;
76725;SDS011;65651;53.154;17.916;2023-04-24T13:57:16;4.10;;;3.60;;
76725;SDS011;65651;53.154;17.916;2023-04-24T13:59:44;5.00;;;4.00;;
76725;SDS011;65651;53.154;17.916;2023-04-24T14:02:14;5.10;;;4.30;;
76725;SDS011;65651;53.154;17.916;2023-04-24T14:04:42;4.50;;;3.90;;
76725;SDS011;65651;53.154;17.916;2023-04-24T14:07:09;5.80;;;3.70;;
76725;SDS011;65651;53.154;17.916;2023-04-24T14:09:36;5.00;;;4.40;;
76725;SDS011;65651;53.154;17.916;2023-04-24T14:12:04;5.70;;;4.00;;
76725;SDS011;65651;53.154;17.916;2023-04-24T14:14:32;8.20;;;5.40;;
76725;SDS011;65651;53.154;17.916;2023-04-24T14:17:00;6.30;;;5.50;;
76725;SDS011;65651;53.154;17.916;2023-04-24T14:19:28;6.60;;;5.30;;
76725;SDS011;65651;53.154;17.916;2023-04-24T14:21:55;7.30;;;4.30;;
76725;SDS011;65651;53.154;17.916;2023-04-24T14:24:25;5.00;;;4.20;;
76725;SDS011;65651;53.154;17.916;2023-04-24T14:26:56;6.30;;;5.10;;
76725;SDS011;65651;53.154;17.916;2023-04-24T14:29:24;5.60;;;5.10;;
76725;SDS011;65651;53.154;17.916;2023-04-24T14:31:55;5.10;;;4.30;;
76725;SDS011;65651;53.154;17.916;2023-04-24T14:34:22;4.60;;;3.70;;
76725;SDS011;65651;53.154;17.916;2023-04-24T14:36:49;4.70;;;3.60;;
76725;SDS011;65651;53.154;17.916;2023-04-24T14:39:17;5.20;;;4.20;;
76725;SDS011;65651;53.154;17.916;2023-04-24T14:41:44;5.40;;;3.30;;
76725;SDS011;65651;53.154;17.916;2023-04-24T14:44:12;3.40;;;2.60;;
76725;SDS011;65651;53.154;17.916;2023-04-24T14:46:41;4.40;;;3.80;;
76725;SDS011;65651;53.154;17.916;2023-04-24T14:49:08;3.70;;;3.00;;
76725;SDS011;65651;53.154;17.916;2023-04-24T14:51:36;7.10;;;3.90;;